»·PEaware :: N514GA L71-KBTY

N514GA :: L71-KBTY

FLIGHT INFORMATION

Flight Status: Arrived
Operator: Privately registered:
United States
More flights under this callsign
Pilot: John H. (7647)
Aircraft: BEECH AIRCRAFT DEBONAIR BONANZA
(BE33)
More flights by this aircraft type
Origin: L71 California City Mun
United States
Destination: KBTY Beatty
United States
More flights between these airports :: More routes between these airports
Route: SERUE L72 BTY
File this flight plan on PilotEdge
Remarks:
Altitude:
(Current/Filed)
5,500ft
Speed:
(Current/Filed)
160kts
Departed: 11-Jun-15 01:18 PM
Arrived: 11-Jun-15 02:33 PM
Distance/Time
Traveled:
119nm/1:15
Distance/Time
To Go:
Arrived

Flight Plot

Page will automatically refresh every two minutes.


Map Options




Map Legend


Flown Route
Filed Route
Departure Airport
Arrival Airport
Navaid (VOR, NDB)
Fix

Horizontal Profiles

Position Reports

Time Latitude Longitude Heading Altitude Ground
Speed
11-Jun-15 12:58 35.150898 -118.013569 255 2457ft 0kts
11-Jun-15 12:59 35.150898 -118.013569 255 2457ft 0kts
11-Jun-15 13:00 35.150898 -118.013569 255 2457ft 0kts
11-Jun-15 13:01 35.150898 -118.013569 255 2457ft 0kts
11-Jun-15 13:02 35.150898 -118.013569 255 2457ft 0kts
11-Jun-15 13:03 35.150855 -118.013689 262 2457ft 1kts
11-Jun-15 13:04 35.150849 -118.013753 253 2457ft 0kts
11-Jun-15 13:05 35.150849 -118.013753 253 2457ft 0kts
11-Jun-15 13:06 35.151317 -118.014084 70 2458ft 8kts
11-Jun-15 13:07 35.152000 -118.010955 75 2458ft 9kts
11-Jun-15 13:08 35.153123 -118.006908 342 2458ft 0kts
11-Jun-15 13:09 35.153273 -118.007028 287 2458ft 7kts
11-Jun-15 13:10 35.153266 -118.007151 254 2458ft 0kts
11-Jun-15 13:11 35.153266 -118.007151 254 2458ft 0kts
11-Jun-15 13:12 35.153152 -118.007654 251 2458ft 28kts
11-Jun-15 13:13 35.148731 -118.033963 256 3126ft 87kts
11-Jun-15 13:14 35.170022 -118.045905 36 4108ft 111kts
11-Jun-15 13:15 35.182915 -118.012338 72 5092ft 118kts
11-Jun-15 13:16 35.209315 -117.981588 32 5509ft 164kts
11-Jun-15 13:17 35.251008 -117.951491 31 5495ft 175kts
11-Jun-15 13:18 35.290546 -117.922966 29 5499ft 159kts
11-Jun-15 13:19 35.326586 -117.897073 29 5491ft 157kts
11-Jun-15 13:20 35.350770 -117.853892 64 5484ft 159kts
11-Jun-15 13:21 35.370143 -117.804845 64 5480ft 160kts
11-Jun-15 13:22 35.393336 -117.758765 51 5480ft 160kts
11-Jun-15 13:23 35.406413 -117.738865 51 5480ft 160kts
11-Jun-15 13:24 35.427355 -117.707029 51 5500ft 159kts
11-Jun-15 13:25 35.454834 -117.666573 54 5500ft 160kts
11-Jun-15 13:26 35.467293 -117.616717 91 5501ft 160kts
11-Jun-15 13:27 35.474294 -117.565995 31 5508ft 158kts
11-Jun-15 13:28 35.512702 -117.538760 26 5499ft 160kts
11-Jun-15 13:29 35.555675 -117.526614 5 5500ft 160kts
11-Jun-15 13:30 35.600039 -117.524307 0 5500ft 160kts
11-Jun-15 13:31 35.644659 -117.523906 0 5500ft 160kts
11-Jun-15 13:32 35.690014 -117.523841 0 5501ft 167kts
11-Jun-15 13:33 35.720527 -117.484154 55 5500ft 169kts
11-Jun-15 13:34 35.747740 -117.436834 54 5500ft 169kts
11-Jun-15 13:35 35.771817 -117.395990 53 5499ft 169kts
11-Jun-15 13:36 35.809193 -117.361982 32 5500ft 169kts
11-Jun-15 13:37 35.841599 -117.322691 60 5501ft 168kts
11-Jun-15 13:38 35.870515 -117.277678 41 5500ft 169kts
11-Jun-15 13:39 35.904743 -117.237549 46 5502ft 170kts
11-Jun-15 13:40 35.934422 -117.192201 63 5498ft 170kts
11-Jun-15 13:41 35.943252 -117.135075 84 5503ft 170kts
11-Jun-15 13:42 35.946096 -117.083485 88 5504ft 170kts
11-Jun-15 13:43 35.944649 -117.028162 92 5509ft 170kts
11-Jun-15 13:44 35.958015 -116.974540 35 5495ft 171kts
11-Jun-15 13:45 35.999246 -116.945769 26 5515ft 170kts
11-Jun-15 13:46 36.044303 -116.930572 6 5510ft 171kts
11-Jun-15 13:47 36.087615 -116.923871 6 5505ft 147kts
11-Jun-15 13:48 36.088970 -116.923669 6 5505ft 148kts
11-Jun-15 13:49 36.088970 -116.923669 6 5505ft 148kts
11-Jun-15 13:50 36.088970 -116.923669 6 5505ft 148kts
11-Jun-15 13:51 36.088970 -116.923669 6 5505ft 148kts
11-Jun-15 13:52 36.088970 -116.923669 6 5505ft 148kts
11-Jun-15 13:53 36.088970 -116.923669 6 5505ft 148kts
11-Jun-15 13:54 36.088970 -116.923669 6 5505ft 148kts
11-Jun-15 13:55 36.088970 -116.923669 6 5505ft 148kts
11-Jun-15 13:56 36.088970 -116.923669 6 5505ft 148kts
11-Jun-15 13:57 36.088970 -116.923669 6 5505ft 148kts
11-Jun-15 13:58 36.088970 -116.923669 6 5505ft 148kts
11-Jun-15 13:59 36.088970 -116.923669 6 5505ft 148kts
11-Jun-15 14:00 36.088970 -116.923669 6 5505ft 148kts
11-Jun-15 14:01 36.088970 -116.923669 6 5505ft 148kts
11-Jun-15 14:02 36.088970 -116.923669 6 5505ft 148kts
11-Jun-15 14:03 36.088970 -116.923669 6 5505ft 148kts
11-Jun-15 14:04 36.088970 -116.923669 6 5505ft 148kts
11-Jun-15 14:05 36.088970 -116.923669 6 5505ft 148kts
11-Jun-15 14:06 36.088970 -116.923669 6 5505ft 148kts
11-Jun-15 14:07 36.088970 -116.923669 6 5505ft 148kts
11-Jun-15 14:08 36.088970 -116.923669 6 5505ft 148kts
11-Jun-15 14:09 36.127960 -116.917675 6 5500ft 165kts
11-Jun-15 14:10 36.174206 -116.911161 4 5499ft 169kts
11-Jun-15 14:11 36.221108 -116.906736 359 5499ft 169kts
11-Jun-15 14:12 36.268132 -116.906572 359 5503ft 169kts
11-Jun-15 14:13 36.315224 -116.906412 359 5502ft 170kts
11-Jun-15 14:14 36.359188 -116.906251 359 5506ft 170kts
11-Jun-15 14:15 36.406256 -116.906065 359 5513ft 170kts
11-Jun-15 14:16 36.453497 -116.905863 359 5518ft 170kts
11-Jun-15 14:17 36.498975 -116.905660 359 5524ft 170kts
11-Jun-15 14:18 36.545989 -116.904125 14 5514ft 170kts
11-Jun-15 14:19 36.583711 -116.878558 47 5555ft 166kts
11-Jun-15 14:20 36.615959 -116.836546 47 5530ft 168kts
11-Jun-15 14:21 36.653407 -116.804258 15 5548ft 172kts
11-Jun-15 14:22 36.700460 -116.791963 17 5559ft 173kts
11-Jun-15 14:23 36.746712 -116.775249 17 5577ft 173kts
11-Jun-15 14:24 36.794655 -116.779684 356 5516ft 169kts
11-Jun-15 14:25 36.839760 -116.782055 0 4722ft 159kts
11-Jun-15 14:26 36.879116 -116.781851 336 3969ft 106kts
11-Jun-15 14:27 36.866815 -116.787392 172 3175ft 71kts
11-Jun-15 14:28 36.860517 -116.788679 267 3174ft 6kts
11-Jun-15 14:29 36.860516 -116.788723 267 3174ft 0kts
11-Jun-15 14:30 36.860516 -116.788723 267 3174ft 0kts
11-Jun-15 14:31 36.860516 -116.788723 267 3174ft 0kts
11-Jun-15 14:32 36.860516 -116.788723 267 3174ft 0kts
11-Jun-15 14:33 36.860516 -116.788723 267 3174ft 0kts
11-Jun-15 14:34 36.860516 -116.788723 267 3174ft 0kts

Navigation Log

Ident Type
Flight plan parsing failed, navigation log unavailable